createdAt,value
2023-02-27T00:00:16.470Z,94965.41
2023-02-27T00:02:44.409Z,94960.91
2023-02-27T00:05:13.086Z,94965.09
2023-02-27T00:07:42.403Z,94961.41
2023-02-27T00:10:12.788Z,94963.06
2023-02-27T00:12:40.441Z,94964.72
2023-02-27T00:15:09.473Z,94959.22
2023-02-27T00:17:37.447Z,94958.06
2023-02-27T00:20:05.882Z,94960.06
2023-02-27T00:22:33.506Z,94962.75
2023-02-27T00:25:02.441Z,94961.88
2023-02-27T00:27:30.009Z,94968.06
2023-02-27T00:29:57.648Z,94973.56
2023-02-27T00:32:25.248Z,94966.41
2023-02-27T00:34:52.860Z,94969.22
2023-02-27T00:37:20.441Z,94975.91
2023-02-27T00:39:48.020Z,94980.72
2023-02-27T00:42:17.088Z,94980.88
2023-02-27T00:44:44.690Z,94976.41
2023-02-27T00:47:12.272Z,94979.72
2023-02-27T00:49:39.975Z,94971.41
2023-02-27T00:52:07.584Z,94972.38
2023-02-27T00:54:35.224Z,94969.72
2023-02-27T00:57:02.863Z,94968.91
2023-02-27T00:59:31.802Z,94970.56
2023-02-27T01:01:59.497Z,94969.56
2023-02-27T01:04:27.095Z,94973.06
2023-02-27T01:06:54.705Z,94975.56
2023-02-27T01:09:22.340Z,94968.41
2023-02-27T01:11:49.935Z,94978.91
2023-02-27T01:14:17.556Z,94969.56
2023-02-27T01:16:46.599Z,94970.56
2023-02-27T01:19:14.169Z,94978.06
2023-02-27T01:21:42.546Z,94973.75
2023-02-27T01:24:10.174Z,94980.22
2023-02-27T01:26:38.081Z,94979.06
2023-02-27T01:29:06.588Z,94978.75
2023-02-27T01:31:34.353Z,94983.22
2023-02-27T01:34:03.321Z,94978.91
2023-02-27T01:36:31.081Z,94986.06
2023-02-27T01:38:58.763Z,94989.06
2023-02-27T01:41:26.593Z,94996.91
2023-02-27T01:43:59.392Z,94997.75
2023-02-27T01:46:27.681Z,94990.41
2023-02-27T01:48:59.671Z,94994.75
2023-02-27T01:51:31.990Z,94999.56
2023-02-27T01:54:00.478Z,94989.75
2023-02-27T01:56:29.301Z,94994.91
2023-02-27T01:58:59.505Z,94988.53
2023-02-27T02:01:28.248Z,94987.88
2023-02-27T02:04:00.775Z,94985.72
2023-02-27T02:06:31.739Z,94986.75
2023-02-27T02:08:59.892Z,94982.06
2023-02-27T02:11:28.887Z,94986.06
2023-02-27T02:13:58.544Z,94982.38
2023-02-27T02:16:42.897Z,94982.38
2023-02-27T02:19:53.002Z,94984.06
2023-02-27T02:22:37.563Z,94992.41
2023-02-27T02:25:44.732Z,94985.91
2023-02-27T02:28:22.268Z,94981.91
2023-02-27T02:31:17.261Z,94982.72
2023-02-27T02:34:13.608Z,94984.06
2023-02-27T02:37:10.134Z,94986.41
2023-02-27T02:39:52.688Z,94986.41
2023-02-27T02:42:23.493Z,94980.91
2023-02-27T02:44:58.396Z,94980.75
2023-02-27T02:47:32.817Z,94978.91
2023-02-27T02:50:05.415Z,94974.22
2023-02-27T02:52:37.995Z,94985.38
2023-02-27T02:55:09.894Z,94985.53
2023-02-27T02:57:38.486Z,94975.91
2023-02-27T03:00:09.393Z,94981.06
2023-02-27T03:02:40.675Z,94974.38
2023-02-27T03:05:10.026Z,94973.22
2023-02-27T03:07:40.401Z,94973.72
2023-02-27T03:10:13.157Z,94970.22
2023-02-27T03:12:42.919Z,94979.38
2023-02-27T03:15:14.937Z,94977.38
2023-02-27T03:17:46.766Z,94977.91
2023-02-27T03:20:19.406Z,94975.06
2023-02-27T03:22:48.985Z,94974.38
2023-02-27T03:25:18.367Z,94985.72
2023-02-27T03:27:49.541Z,94970.22
2023-02-27T03:30:19.893Z,94974.38
2023-02-27T03:32:50.153Z,94966.72
2023-02-27T03:35:17.783Z,94977.75
2023-02-27T03:37:52.815Z,94973.06
2023-02-27T03:40:27.564Z,94983.41
2023-02-27T03:43:00.985Z,94980.03
2023-02-27T03:45:33.563Z,94983.06
2023-02-27T03:48:01.673Z,94983.72
2023-02-27T03:50:29.275Z,94991.19
2023-02-27T03:52:57.639Z,94989.03
2023-02-27T03:55:30.804Z,94981.88
2023-02-27T03:57:58.448Z,94981.53
2023-02-27T04:00:27.252Z,94992.66
2023-02-27T04:02:56.080Z,94993.88
2023-02-27T04:05:24.346Z,94981.38
2023-02-27T04:08:11.622Z,94992.38
2023-02-27T04:10:55.462Z,94995.69
2023-02-27T04:13:32.272Z,95000.34
2023-02-27T04:16:12.181Z,94992.03
2023-02-27T04:18:52.516Z,95003.66
2023-02-27T04:21:26.191Z,94998.34
2023-02-27T04:23:58.797Z,95001.38
2023-02-27T04:26:31.293Z,94999.03
2023-02-27T04:29:04.498Z,94995.69
2023-02-27T04:31:36.766Z,94998.72
2023-02-27T04:34:09.731Z,95003.03
2023-02-27T04:36:40.718Z,95008.34
2023-02-27T04:39:09.549Z,95006.34
2023-02-27T04:41:41.177Z,95002.69
2023-02-27T04:44:09.896Z,94999.72
2023-02-27T04:46:40.251Z,94995.38
2023-02-27T04:49:10.647Z,94999.38
2023-02-27T04:51:43.928Z,94996.72
2023-02-27T04:54:14.306Z,95000.88
2023-02-27T04:56:47.453Z,94997.38
2023-02-27T04:59:17.914Z,94997.53
2023-02-27T05:01:48.995Z,94992.38
2023-02-27T05:04:20.580Z,95003.69
2023-02-27T05:06:49.368Z,94996.72
2023-02-27T05:09:21.754Z,94992.03
2023-02-27T05:11:53.522Z,94993.38
2023-02-27T05:14:24.471Z,94991.22
2023-02-27T05:16:55.342Z,94989.72
2023-02-27T05:19:23.162Z,94989.88
2023-02-27T05:21:55.319Z,95000.38
2023-02-27T05:24:30.205Z,94995.88
2023-02-27T05:27:11.869Z,94997.03
2023-02-27T05:29:45.807Z,94996.22
2023-02-27T05:32:23.871Z,94992.88
2023-02-27T05:34:53.953Z,95009.72
2023-02-27T05:37:24.357Z,95000.69
2023-02-27T05:39:53.452Z,95009.72
2023-02-27T05:42:26.995Z,95008.03
2023-02-27T05:44:57.795Z,95001.19
2023-02-27T05:47:28.759Z,95003.03
2023-02-27T05:50:00.279Z,94997.50
2023-02-27T05:52:29.110Z,95002.19
2023-02-27T05:55:01.729Z,95007.66
2023-02-27T05:57:33.610Z,95010.69
2023-02-27T06:00:02.986Z,95014.31
2023-02-27T06:02:30.733Z,95011.34
2023-02-27T06:04:58.465Z,95007.03
2023-02-27T06:07:26.116Z,95013.19
2023-02-27T06:09:53.828Z,95015.19
2023-02-27T06:12:21.496Z,95021.34
2023-02-27T06:14:51.782Z,95020.50
2023-02-27T06:17:19.385Z,95020.50
2023-02-27T06:19:47.104Z,95024.31
2023-02-27T06:22:14.736Z,95024.81
2023-02-27T06:24:42.379Z,95023.66
2023-02-27T06:27:10.069Z,95018.50
2023-02-27T06:29:37.671Z,95024.28
2023-02-27T06:32:06.653Z,95025.16
2023-02-27T06:34:34.291Z,95016.66
2023-02-27T06:37:04.176Z,95024.28
2023-02-27T06:39:32.770Z,95033.47
2023-02-27T06:42:00.371Z,95036.31
2023-02-27T06:44:28.017Z,95026.31
2023-02-27T06:46:55.613Z,95031.31
2023-02-27T06:49:24.627Z,95029.00
2023-02-27T06:51:52.251Z,95026.03
2023-02-27T06:54:19.881Z,95028.19
2023-02-27T06:56:47.957Z,95038.50
2023-02-27T06:59:15.596Z,95036.00
2023-02-27T07:01:43.301Z,95037.69
2023-02-27T07:04:13.167Z,95036.19
2023-02-27T07:07:34.672Z,95042.03
2023-02-27T07:09:29.826Z,95029.72
2023-02-27T07:11:57.452Z,95046.38
2023-02-27T07:14:26.931Z,95044.03
2023-02-27T07:16:54.927Z,95044.03
2023-02-27T07:19:30.332Z,95046.38
2023-02-27T07:22:21.339Z,95054.06
2023-02-27T07:24:49.028Z,95055.72
2023-02-27T07:27:16.665Z,95058.72
2023-02-27T07:29:44.298Z,95053.91
2023-02-27T07:32:12.257Z,95061.41
2023-02-27T07:34:39.885Z,95063.56
2023-02-27T07:37:08.022Z,95055.06
2023-02-27T07:39:36.937Z,95060.06
2023-02-27T07:42:05.019Z,95058.94
2023-02-27T07:44:32.944Z,95055.06
2023-02-27T07:47:00.577Z,95061.91
2023-02-27T07:49:28.227Z,95063.41
2023-02-27T07:51:55.887Z,95065.59
2023-02-27T07:54:23.475Z,95063.56
2023-02-27T07:56:52.368Z,95066.06
2023-02-27T07:59:20.001Z,95069.22
2023-02-27T08:01:47.698Z,95068.41
2023-02-27T08:04:18.824Z,95069.41
2023-02-27T08:06:46.433Z,95078.91
2023-02-27T08:09:14.055Z,95072.59
2023-02-27T08:11:41.737Z,95079.09
2023-02-27T08:14:10.712Z,95074.41
2023-02-27T08:17:13.693Z,95070.75
2023-02-27T08:19:41.761Z,95077.78
2023-02-27T08:22:09.384Z,95077.78
2023-02-27T08:24:38.542Z,95068.75
2023-02-27T08:27:06.130Z,95074.59
2023-02-27T08:29:33.858Z,95087.44
2023-02-27T08:32:02.032Z,95092.44
2023-02-27T08:34:31.288Z,95088.91
2023-02-27T08:36:59.103Z,95099.25
2023-02-27T08:39:26.693Z,95093.09
2023-02-27T08:41:54.287Z,95091.44
2023-02-27T08:44:21.961Z,95090.28
2023-02-27T08:46:49.585Z,95094.25
2023-02-27T08:49:19.467Z,95092.78
2023-02-27T08:51:49.522Z,95094.75
2023-02-27T08:54:17.084Z,95100.06
2023-02-27T08:56:44.681Z,95097.25
2023-02-27T08:59:12.251Z,95099.75
2023-02-27T09:01:42.700Z,95098.75
2023-02-27T09:04:10.959Z,95104.09
2023-02-27T09:06:38.931Z,95108.72
2023-02-27T09:09:08.012Z,95095.59
2023-02-27T09:11:37.475Z,95101.44
2023-02-27T09:14:24.121Z,95102.41
2023-02-27T09:16:51.739Z,95093.38
2023-02-27T09:19:19.308Z,95095.91
2023-02-27T09:21:47.144Z,95112.06
2023-02-27T09:24:20.399Z,95103.91
2023-02-27T09:26:48.790Z,95099.88
2023-02-27T09:29:16.722Z,95103.75
2023-02-27T09:31:44.438Z,95106.75
2023-02-27T09:34:12.070Z,95103.53
2023-02-27T09:36:39.667Z,95108.41
2023-02-27T09:39:09.658Z,95133.13
2023-02-27T09:41:49.340Z,95127.09
2023-02-27T09:44:36.343Z,95122.94
2023-02-27T09:47:14.377Z,95134.94
2023-02-27T09:50:02.561Z,95134.13
2023-02-27T09:52:31.728Z,95140.44
2023-02-27T09:54:59.631Z,95144.28
2023-02-27T09:57:39.471Z,95141.78
2023-02-27T10:00:09.999Z,95141.81
2023-02-27T10:02:48.051Z,95144.47
2023-02-27T10:05:26.736Z,95148.13
2023-02-27T10:08:01.070Z,95146.44
2023-02-27T10:10:32.786Z,95150.09
2023-02-27T10:13:24.208Z,95142.78
2023-02-27T10:15:54.140Z,95158.50
2023-02-27T10:18:28.998Z,95156.47
2023-02-27T10:21:01.599Z,95163.84
2023-02-27T10:23:35.024Z,95162.69
2023-02-27T10:26:02.984Z,95167.84
2023-02-27T10:28:31.996Z,95158.97
2023-02-27T10:31:02.050Z,95168.50
2023-02-27T10:33:33.842Z,95164.00
2023-02-27T10:36:03.221Z,95166.50
2023-02-27T10:38:34.648Z,95159.13
2023-02-27T10:41:03.303Z,95158.97
2023-02-27T10:43:32.275Z,95168.34
2023-02-27T10:46:02.429Z,95162.47
2023-02-27T10:48:32.758Z,95158.09
2023-02-27T10:51:22.050Z,95163.78
2023-02-27T10:53:49.641Z,95169.13
2023-02-27T10:56:20.235Z,95165.13
2023-02-27T10:59:02.657Z,95165.09
2023-02-27T11:01:42.425Z,95169.97
2023-02-27T11:04:10.113Z,95166.78
2023-02-27T11:06:37.732Z,95169.13
2023-02-27T11:09:21.876Z,95157.88
2023-02-27T11:11:49.901Z,95163.53
2023-02-27T11:14:29.901Z,95163.38
2023-02-27T11:16:59.073Z,95161.94
2023-02-27T11:19:31.648Z,95165.09
2023-02-27T11:22:02.064Z,95165.56
2023-02-27T11:24:30.797Z,95160.00
2023-02-27T11:27:00.115Z,95164.06
2023-02-27T11:29:29.058Z,95167.13
2023-02-27T11:31:57.754Z,95170.44
2023-02-27T11:34:31.849Z,95164.06
2023-02-27T11:37:01.973Z,95166.06
2023-02-27T11:39:37.702Z,95172.13
2023-02-27T11:42:18.832Z,95173.75
2023-02-27T11:44:54.529Z,95160.34
2023-02-27T11:47:27.325Z,95158.88
2023-02-27T11:50:28.545Z,95155.50
2023-02-27T11:53:02.918Z,95166.88
2023-02-27T11:55:30.780Z,95167.03
2023-02-27T11:58:03.613Z,95161.13
2023-02-27T12:00:37.132Z,95165.97
2023-02-27T12:03:07.405Z,95175.69
2023-02-27T12:05:40.049Z,95170.00
2023-02-27T12:08:12.610Z,95173.88
2023-02-27T12:10:47.210Z,95173.88
2023-02-27T12:13:16.662Z,95163.19
2023-02-27T12:15:46.742Z,95168.41
2023-02-27T12:18:17.524Z,95169.13
2023-02-27T12:20:51.444Z,95168.25
2023-02-27T12:23:23.356Z,95175.94
2023-02-27T12:25:53.931Z,95162.44
2023-02-27T12:28:34.242Z,95169.81
2023-02-27T12:31:09.034Z,95169.31
2023-02-27T12:33:40.738Z,95170.78
2023-02-27T12:36:11.980Z,95168.16
2023-02-27T12:38:39.623Z,95180.00
2023-02-27T12:41:30.404Z,95175.16
2023-02-27T12:44:17.658Z,95180.53
2023-02-27T12:46:49.925Z,95183.03
2023-02-27T12:49:25.957Z,95174.31
2023-02-27T12:52:00.703Z,95172.97
2023-02-27T12:54:37.225Z,95179.50
2023-02-27T12:57:15.967Z,95187.53
2023-02-27T12:59:52.403Z,95186.19
2023-02-27T13:02:34.954Z,95195.06
2023-02-27T13:05:24.106Z,95176.84
2023-02-27T13:07:57.567Z,95182.53
2023-02-27T13:10:31.443Z,95184.53
2023-02-27T13:13:04.408Z,95174.66
2023-02-27T13:15:35.565Z,95178.16
2023-02-27T13:18:10.698Z,95181.47
2023-02-27T13:20:44.024Z,95184.13
2023-02-27T13:23:18.307Z,95192.31
2023-02-27T13:25:50.815Z,95174.28
2023-02-27T13:28:21.696Z,95183.47
2023-02-27T13:30:57.300Z,95176.94
2023-02-27T13:33:31.064Z,95181.41
2023-02-27T13:36:06.220Z,95172.56
2023-02-27T13:38:42.982Z,95177.59
2023-02-27T13:41:37.028Z,95171.78
2023-02-27T13:44:37.319Z,95176.66
2023-02-27T13:47:39.069Z,95173.13
2023-02-27T13:50:52.452Z,95182.25
2023-02-27T13:53:22.501Z,95174.06
2023-02-27T13:55:50.615Z,95172.81
2023-02-27T13:58:24.642Z,95177.81
2023-02-27T14:01:02.935Z,95170.63
2023-02-27T14:03:32.169Z,95182.84
2023-02-27T14:06:04.085Z,95179.81
2023-02-27T14:08:34.389Z,95177.16
2023-02-27T14:11:13.949Z,95180.50
2023-02-27T14:14:00.761Z,95177.00
2023-02-27T14:16:57.691Z,95184.16
2023-02-27T14:19:45.151Z,95173.47
2023-02-27T14:22:40.275Z,95181.88
2023-02-27T14:25:18.792Z,95172.47
2023-02-27T14:27:50.593Z,95177.81
2023-02-27T14:30:27.584Z,95186.47
2023-02-27T14:32:58.370Z,95183.81
2023-02-27T14:35:26.490Z,95183.66
2023-02-27T14:37:55.724Z,95181.66
2023-02-27T14:40:29.914Z,95176.34
2023-02-27T14:43:04.481Z,95178.31
2023-02-27T14:45:32.476Z,95185.69
2023-02-27T14:48:00.261Z,95180.50
2023-02-27T14:50:32.231Z,95171.00
2023-02-27T14:53:01.497Z,95180.34
2023-02-27T14:55:30.356Z,95179.19
2023-02-27T14:58:00.849Z,95180.81
2023-02-27T15:00:33.860Z,95178.16
2023-02-27T15:03:02.121Z,95179.84
2023-02-27T15:05:34.760Z,95181.53
2023-02-27T15:08:04.144Z,95187.03
2023-02-27T15:10:33.227Z,95185.50
2023-02-27T15:13:01.895Z,95189.16
2023-02-27T15:15:29.859Z,95187.50
2023-02-27T15:17:57.490Z,95192.13
2023-02-27T15:20:29.810Z,95192.84
2023-02-27T15:22:57.950Z,95197.50
2023-02-27T15:25:32.765Z,95196.53
2023-02-27T15:28:03.101Z,95200.91
2023-02-27T15:30:31.604Z,95199.19
2023-02-27T15:32:59.788Z,95202.53
2023-02-27T15:35:31.778Z,95202.53
2023-02-27T15:37:59.947Z,95207.56
2023-02-27T15:40:31.033Z,95204.56
2023-02-27T15:42:59.392Z,95203.41
2023-02-27T15:45:28.965Z,95205.53
2023-02-27T15:47:56.758Z,95208.06
2023-02-27T15:50:27.585Z,95210.88
2023-02-27T15:52:59.957Z,95216.91
2023-02-27T15:55:32.476Z,95215.91
2023-02-27T15:58:03.377Z,95220.25
2023-02-27T16:00:32.333Z,95220.09
2023-02-27T16:03:00.851Z,95228.44
2023-02-27T16:05:32.902Z,95230.78
2023-02-27T16:08:00.937Z,95234.94
2023-02-27T16:10:31.688Z,95233.28
2023-02-27T16:12:59.321Z,95234.44
2023-02-27T16:15:30.619Z,95241.28
2023-02-27T16:18:01.304Z,95239.63
2023-02-27T16:20:41.051Z,95241.94
2023-02-27T16:23:17.153Z,95250.97
2023-02-27T16:26:01.820Z,95250.97
2023-02-27T16:28:31.247Z,95248.47
2023-02-27T16:30:59.043Z,95246.13
2023-02-27T16:33:28.851Z,95247.28
2023-02-27T16:36:11.849Z,95253.28
2023-02-27T16:38:39.730Z,95254.94
2023-02-27T16:41:11.834Z,95259.63
2023-02-27T16:43:39.727Z,95266.31
2023-02-27T16:46:08.231Z,95257.28
2023-02-27T16:48:36.563Z,95262.94
2023-02-27T16:51:04.782Z,95275.78
2023-02-27T16:53:32.378Z,95272.59
2023-02-27T16:56:02.063Z,95279.78
2023-02-27T16:58:31.039Z,95282.97
2023-02-27T17:00:58.674Z,95281.28
2023-02-27T17:03:26.280Z,95290.50
2023-02-27T17:05:54.017Z,95290.16
2023-02-27T17:08:22.307Z,95292.66
2023-02-27T17:10:50.009Z,95292.34
2023-02-27T17:13:18.290Z,95295.31
2023-02-27T17:15:47.412Z,95293.94
2023-02-27T17:18:15.039Z,95295.97
2023-02-27T17:20:42.644Z,95291.94
2023-02-27T17:23:12.915Z,95299.28
2023-02-27T17:25:42.655Z,95300.28
2023-02-27T17:28:10.597Z,95310.81
2023-02-27T17:30:39.726Z,95301.78
2023-02-27T17:33:08.747Z,95307.13
2023-02-27T17:35:36.377Z,95313.13
2023-02-27T17:38:07.348Z,95313.13
2023-02-27T17:40:37.374Z,95313.69
2023-02-27T17:43:04.991Z,95316.56
2023-02-27T17:45:32.729Z,95317.22
2023-02-27T17:48:00.408Z,95322.72
2023-02-27T17:50:31.959Z,95326.22
2023-02-27T17:52:59.532Z,95326.22
2023-02-27T17:55:27.144Z,95330.53
2023-02-27T17:57:54.753Z,95332.69
2023-02-27T18:00:23.751Z,95334.34
2023-02-27T18:02:51.398Z,95332.38
2023-02-27T18:05:19.296Z,95334.88
2023-02-27T18:07:48.603Z,95337.53
2023-02-27T18:10:16.282Z,95343.06
2023-02-27T18:12:44.167Z,95341.53
2023-02-27T18:15:11.889Z,95348.38
2023-02-27T18:17:39.486Z,95345.00
2023-02-27T18:20:09.195Z,95343.34
2023-02-27T18:22:36.797Z,95351.50
2023-02-27T18:25:07.171Z,95333.50
2023-02-27T18:27:34.767Z,95349.50
2023-02-27T18:30:02.761Z,95350.16
2023-02-27T18:32:30.325Z,95346.50
2023-02-27T18:34:57.871Z,95359.66
2023-02-27T18:37:25.493Z,95355.63
2023-02-27T18:39:53.074Z,95357.81
2023-02-27T18:42:22.027Z,95349.13
2023-02-27T18:44:49.720Z,95345.44
2023-02-27T18:47:17.331Z,95346.56
2023-02-27T18:49:45.987Z,95345.91
2023-02-27T18:52:13.601Z,95345.91
2023-02-27T18:54:42.369Z,95359.25
2023-02-27T18:57:10.142Z,95354.69
2023-02-27T18:59:41.175Z,95365.88
2023-02-27T19:02:13.539Z,95370.34
2023-02-27T19:04:41.105Z,95368.38
2023-02-27T19:07:08.740Z,95367.97
2023-02-27T19:09:36.322Z,95365.31
2023-02-27T19:12:04.514Z,95366.44
2023-02-27T19:14:32.122Z,95365.72
2023-02-27T19:17:01.613Z,95371.56
2023-02-27T19:19:29.903Z,95371.34
2023-02-27T19:21:57.749Z,95367.16
2023-02-27T19:24:26.053Z,95367.16
2023-02-27T19:26:53.732Z,95378.69
2023-02-27T19:29:21.510Z,95376.38
2023-02-27T19:31:49.239Z,95370.53
2023-02-27T19:34:18.313Z,95366.31
2023-02-27T19:36:46.059Z,95368.31
2023-02-27T19:39:13.784Z,95371.97
2023-02-27T19:41:42.054Z,95363.28
2023-02-27T19:44:10.046Z,95370.31
2023-02-27T19:46:39.130Z,95363.28
2023-02-27T19:49:08.271Z,95370.47
2023-02-27T19:51:37.476Z,95368.41
2023-02-27T19:54:05.440Z,95363.25
2023-02-27T19:56:33.080Z,95372.84
2023-02-27T19:59:02.004Z,95373.69
2023-02-27T20:01:31.434Z,95373.16
2023-02-27T20:03:59.935Z,95370.50
2023-02-27T20:06:29.667Z,95375.53
2023-02-27T20:08:59.610Z,95367.00
2023-02-27T20:11:30.479Z,95364.13
2023-02-27T20:13:58.922Z,95360.75
2023-02-27T20:16:28.197Z,95372.41
2023-02-27T20:18:56.341Z,95360.75
2023-02-27T20:21:26.799Z,95372.41
2023-02-27T20:23:55.302Z,95363.75
2023-02-27T20:26:27.082Z,95365.09
2023-02-27T20:28:56.114Z,95370.38
2023-02-27T20:31:25.776Z,95363.03
2023-02-27T20:33:53.528Z,95359.69
2023-02-27T20:36:21.680Z,95356.88
2023-02-27T20:38:49.451Z,95359.69
2023-02-27T20:41:18.683Z,95357.72
2023-02-27T20:43:47.706Z,95357.34
2023-02-27T20:46:17.147Z,95353.53
2023-02-27T20:48:44.996Z,95350.72
2023-02-27T20:51:13.961Z,95352.38
2023-02-27T20:53:43.719Z,95343.72
2023-02-27T20:56:11.455Z,95342.88
2023-02-27T20:58:40.016Z,95345.84
2023-02-27T21:01:11.451Z,95344.72
2023-02-27T21:03:40.754Z,95344.03
2023-02-27T21:06:10.757Z,95348.06
2023-02-27T21:08:39.114Z,95349.03
2023-02-27T21:11:10.145Z,95349.03
2023-02-27T21:13:38.107Z,95349.03
2023-02-27T21:16:07.322Z,95346.69
2023-02-27T21:18:37.752Z,95342.38
2023-02-27T21:21:06.755Z,95337.56
2023-02-27T21:23:40.105Z,95344.72
2023-02-27T21:26:08.007Z,95337.72
2023-02-27T21:28:46.847Z,95339.56
2023-02-27T21:31:15.207Z,95337.41
2023-02-27T21:33:44.825Z,95339.78
2023-02-27T21:36:13.017Z,95341.28
2023-02-27T21:38:40.970Z,95337.09
2023-02-27T21:41:11.413Z,95338.91
2023-02-27T21:43:40.366Z,95333.72
2023-02-27T21:46:08.925Z,95342.53
2023-02-27T21:48:36.636Z,95329.34
2023-02-27T21:51:06.989Z,95334.38
2023-02-27T21:53:36.627Z,95333.88
2023-02-27T21:56:05.449Z,95324.38
2023-02-27T21:58:33.483Z,95329.88
2023-02-27T22:01:01.241Z,95319.88
2023-02-27T22:03:34.148Z,95319.06
2023-02-27T22:06:02.449Z,95311.75
2023-02-27T22:08:31.557Z,95319.88
2023-02-27T22:10:59.738Z,95318.22
2023-02-27T22:13:27.929Z,95304.75
2023-02-27T22:15:55.574Z,95314.03
2023-02-27T22:18:23.292Z,95315.34
2023-02-27T22:20:50.888Z,95310.69
2023-02-27T22:23:18.686Z,95299.22
2023-02-27T22:25:47.623Z,95302.72
2023-02-27T22:28:15.811Z,95306.66
2023-02-27T22:30:43.420Z,95300.66
2023-02-27T22:33:11.032Z,95295.31
2023-02-27T22:35:38.662Z,95297.47
2023-02-27T22:38:06.308Z,95300.66
2023-02-27T22:40:36.077Z,95285.84
2023-02-27T22:43:05.076Z,95288.34
2023-02-27T22:45:32.689Z,95287.19
2023-02-27T22:48:00.321Z,95286.34
2023-02-27T22:50:27.953Z,95281.84
2023-02-27T22:52:55.560Z,95283.00
2023-02-27T22:55:23.151Z,95275.47
2023-02-27T22:57:51.833Z,95271.81
2023-02-27T23:00:21.164Z,95273.50
2023-02-27T23:02:48.790Z,95271.97
2023-02-27T23:05:16.439Z,95270.31
2023-02-27T23:07:44.032Z,95269.94
2023-02-27T23:10:12.807Z,95273.06
2023-02-27T23:12:40.412Z,95272.22
2023-02-27T23:15:09.708Z,95272.22
2023-02-27T23:17:51.956Z,95264.09
2023-02-27T23:20:24.002Z,95263.75
2023-02-27T23:22:52.900Z,95276.69
2023-02-27T23:25:20.717Z,95279.50
2023-02-27T23:27:48.442Z,95284.00
2023-02-27T23:30:16.786Z,95281.66
2023-02-27T23:32:45.824Z,95272.00
2023-02-27T23:35:16.200Z,95265.81
2023-02-27T23:37:43.802Z,95272.31
2023-02-27T23:40:12.899Z,95271.16
2023-02-27T23:42:40.489Z,95265.81
2023-02-27T23:45:24.045Z,95266.69
2023-02-27T23:47:54.666Z,95260.66
2023-02-27T23:50:23.682Z,95257.63
2023-02-27T23:52:52.756Z,95266.78
2023-02-27T23:55:21.240Z,95264.41
2023-02-27T23:57:51.930Z,95259.09
